createdAt,value
2022-09-09T00:01:38.483Z,82.49
2022-09-09T00:04:29.307Z,82.55
2022-09-09T00:07:06.166Z,82.48
2022-09-09T00:09:47.182Z,82.35
2022-09-09T00:12:34.545Z,82.37
2022-09-09T00:15:20.777Z,82.38
2022-09-09T00:17:56.341Z,82.44
2022-09-09T00:20:27.187Z,82.50
2022-09-09T00:23:12.110Z,82.50
2022-09-09T00:26:05.740Z,82.59
2022-09-09T00:28:40.289Z,82.66
2022-09-09T00:31:21.965Z,82.54
2022-09-09T00:33:52.103Z,82.68
2022-09-09T00:36:25.419Z,82.81
2022-09-09T00:38:58.675Z,83.01
2022-09-09T00:42:10.764Z,83.18
2022-09-09T00:44:40.867Z,83.44
2022-09-09T00:47:40.775Z,83.42
2022-09-09T00:50:27.400Z,83.68
2022-09-09T00:53:01.378Z,83.72
2022-09-09T00:55:49.600Z,83.67
2022-09-09T00:58:17.554Z,83.80
2022-09-09T01:00:51.208Z,83.80
2022-09-09T01:03:41.514Z,83.90
2022-09-09T01:06:40.722Z,83.98
2022-09-09T01:09:18.463Z,84.02
2022-09-09T01:12:19.086Z,84.05
2022-09-09T01:14:53.518Z,84.20
2022-09-09T01:17:48.013Z,84.27
2022-09-09T01:20:28.653Z,84.41
2022-09-09T01:23:12.313Z,84.32
2022-09-09T01:26:19.625Z,84.35
2022-09-09T01:28:50.786Z,84.42
2022-09-09T01:31:24.010Z,84.37
2022-09-09T01:33:52.334Z,84.78
2022-09-09T01:36:36.338Z,84.80
2022-09-09T01:39:04.995Z,84.71
2022-09-09T01:41:33.301Z,84.66
2022-09-09T01:44:01.760Z,84.67
2022-09-09T01:46:30.514Z,84.61
2022-09-09T01:49:03.667Z,84.61
2022-09-09T01:51:32.438Z,84.68
2022-09-09T01:54:01.028Z,84.78
2022-09-09T01:56:44.086Z,84.84
2022-09-09T01:59:21.281Z,84.85
2022-09-09T02:02:09.986Z,84.86
2022-09-09T02:05:04.319Z,84.98
2022-09-09T02:07:41.539Z,85.05
2022-09-09T02:10:48.463Z,85.04
2022-09-09T02:13:19.703Z,85.08
2022-09-09T02:15:57.446Z,84.95
2022-09-09T02:19:26.949Z,84.99
2022-09-09T02:21:58.978Z,84.98
2022-09-09T02:24:28.766Z,84.91
2022-09-09T02:27:00.178Z,84.82
2022-09-09T02:29:42.661Z,84.76
2022-09-09T02:32:16.875Z,84.75
2022-09-09T02:34:50.025Z,84.75
2022-09-09T02:37:22.009Z,84.72
2022-09-09T02:39:50.367Z,84.73
2022-09-09T02:42:18.327Z,84.82
2022-09-09T02:44:46.780Z,84.87
2022-09-09T02:47:40.226Z,84.87
2022-09-09T02:50:37.722Z,84.96
2022-09-09T02:53:22.106Z,85.01
2022-09-09T02:56:14.970Z,85.01
2022-09-09T02:58:43.694Z,85.05
2022-09-09T03:01:12.752Z,85.02
2022-09-09T03:03:43.198Z,85.05
2022-09-09T03:06:13.208Z,85.13
2022-09-09T03:08:48.998Z,85.11
2022-09-09T03:11:18.374Z,85.13
2022-09-09T03:13:46.357Z,85.16
2022-09-09T03:16:14.069Z,85.20
2022-09-09T03:18:41.809Z,85.23
2022-09-09T03:21:09.475Z,85.28
2022-09-09T03:23:37.118Z,85.35
2022-09-09T03:26:04.803Z,85.42
2022-09-09T03:28:33.747Z,85.66
2022-09-09T03:31:03.831Z,85.65
2022-09-09T03:33:32.503Z,85.62
2022-09-09T03:36:00.259Z,85.71
2022-09-09T03:38:27.960Z,85.65
2022-09-09T03:40:58.584Z,85.60
2022-09-09T03:43:27.772Z,85.68
2022-09-09T03:45:59.156Z,85.73
2022-09-09T03:48:29.595Z,85.81
2022-09-09T03:50:59.364Z,85.86
2022-09-09T03:53:28.220Z,85.95
2022-09-09T03:56:01.139Z,86.01
2022-09-09T03:58:29.574Z,86.09
2022-09-09T04:01:00.778Z,86.10
2022-09-09T04:03:30.141Z,86.07
2022-09-09T04:06:01.318Z,86.09
2022-09-09T04:08:32.490Z,86.09
2022-09-09T04:11:02.819Z,86.19
2022-09-09T04:13:31.367Z,86.24
2022-09-09T04:16:01.080Z,86.29
2022-09-09T04:18:29.312Z,86.26
2022-09-09T04:20:58.900Z,86.19
2022-09-09T04:23:30.593Z,86.28
2022-09-09T04:26:00.180Z,86.21
2022-09-09T04:28:32.033Z,86.12
2022-09-09T04:31:19.094Z,86.03
2022-09-09T04:33:47.696Z,85.99
2022-09-09T04:36:15.524Z,85.91
2022-09-09T04:38:45.517Z,85.87
2022-09-09T04:41:14.171Z,85.85
2022-09-09T04:43:41.949Z,85.77
2022-09-09T04:46:10.431Z,85.75
2022-09-09T04:48:38.503Z,85.68
2022-09-09T04:51:08.476Z,85.65
2022-09-09T04:53:36.831Z,85.64
2022-09-09T04:56:07.918Z,85.67
2022-09-09T04:58:39.899Z,85.57
2022-09-09T05:01:25.837Z,85.52
2022-09-09T05:03:57.340Z,85.54
2022-09-09T05:06:26.495Z,85.52
2022-09-09T05:08:54.451Z,85.50
2022-09-09T05:11:27.909Z,85.54
2022-09-09T05:13:56.941Z,85.57
2022-09-09T05:16:28.004Z,85.53
2022-09-09T05:18:56.545Z,85.56
2022-09-09T05:21:29.303Z,85.60
2022-09-09T05:23:57.191Z,85.64
2022-09-09T05:26:28.409Z,85.68
2022-09-09T05:28:59.144Z,85.67
2022-09-09T05:31:29.708Z,85.71
2022-09-09T05:33:59.996Z,85.69
2022-09-09T05:36:29.348Z,85.71
2022-09-09T05:38:57.909Z,85.75
2022-09-09T05:41:25.846Z,85.81
2022-09-09T05:43:53.595Z,85.90
2022-09-09T05:46:26.438Z,85.96
2022-09-09T05:48:55.970Z,86.06
2022-09-09T05:51:28.319Z,86.18
2022-09-09T05:54:02.153Z,86.43
2022-09-09T05:56:34.168Z,86.66
2022-09-09T05:59:03.848Z,86.64
2022-09-09T06:01:37.688Z,86.73
2022-09-09T06:04:05.686Z,86.95
2022-09-09T06:06:41.016Z,87.01
2022-09-09T06:09:13.080Z,86.77
2022-09-09T06:11:43.556Z,86.42
2022-09-09T06:14:11.685Z,86.02
2022-09-09T06:16:40.780Z,86.11
2022-09-09T06:19:08.882Z,86.58
2022-09-09T06:21:41.928Z,86.96
2022-09-09T06:24:14.920Z,87.51
2022-09-09T06:26:46.492Z,87.64
2022-09-09T06:29:14.513Z,87.39
2022-09-09T06:31:45.800Z,87.19
2022-09-09T06:34:17.298Z,87.35
2022-09-09T06:36:50.277Z,87.54
2022-09-09T06:39:18.956Z,87.54
2022-09-09T06:41:54.170Z,87.80
2022-09-09T06:44:21.844Z,87.45
2022-09-09T06:46:49.825Z,86.95
2022-09-09T06:49:22.960Z,86.87
2022-09-09T06:51:54.468Z,86.85
2022-09-09T06:54:26.664Z,86.62
2022-09-09T06:56:55.807Z,86.29
2022-09-09T06:59:23.778Z,85.91
2022-09-09T07:01:56.518Z,85.90
2022-09-09T07:04:28.593Z,85.95
2022-09-09T07:06:56.528Z,85.95
2022-09-09T07:09:26.475Z,85.91
2022-09-09T07:11:59.561Z,85.91
2022-09-09T07:14:30.672Z,85.90
2022-09-09T07:16:59.806Z,86.00
2022-09-09T07:19:31.060Z,86.00
2022-09-09T07:21:58.971Z,85.96
2022-09-09T07:24:34.411Z,85.69
2022-09-09T07:27:02.360Z,85.45
2022-09-09T07:29:33.534Z,85.14
2022-09-09T07:32:01.630Z,85.24
2022-09-09T07:34:29.566Z,84.98
2022-09-09T07:37:01.942Z,84.47
2022-09-09T07:39:29.663Z,84.19
2022-09-09T07:42:00.805Z,84.07
2022-09-09T07:44:32.859Z,83.83
2022-09-09T07:47:00.835Z,83.43
2022-09-09T07:49:32.840Z,82.71
2022-09-09T07:52:04.647Z,81.81
2022-09-09T07:54:34.530Z,81.61
2022-09-09T07:57:05.904Z,80.72
2022-09-09T07:59:38.127Z,78.90
2022-09-09T08:02:10.654Z,77.70
2022-09-09T08:04:38.656Z,73.29
2022-09-09T08:07:08.446Z,70.43
2022-09-09T08:09:36.371Z,71.46
2022-09-09T08:12:04.511Z,70.74
2022-09-09T08:14:34.282Z,69.20
2022-09-09T08:17:02.252Z,67.70
2022-09-09T08:19:36.942Z,69.33
2022-09-09T08:22:05.002Z,69.08
2022-09-09T08:24:34.870Z,67.54
2022-09-09T08:27:04.654Z,68.15
2022-09-09T08:29:32.609Z,69.59
2022-09-09T08:32:03.938Z,70.01
2022-09-09T08:34:36.068Z,71.04
2022-09-09T08:37:04.126Z,71.28
2022-09-09T08:39:38.036Z,70.56
2022-09-09T08:42:17.270Z,68.60
2022-09-09T08:45:13.649Z,68.12
2022-09-09T08:48:00.016Z,66.94
2022-09-09T08:50:39.713Z,66.08
2022-09-09T08:53:43.034Z,63.81
2022-09-09T08:56:22.733Z,61.80
2022-09-09T08:58:55.544Z,60.62
2022-09-09T09:01:31.532Z,57.41
2022-09-09T09:03:59.491Z,58.03
2022-09-09T09:07:02.542Z,57.26
2022-09-09T09:09:38.598Z,57.75
2022-09-09T09:12:17.195Z,58.17
2022-09-09T09:14:50.702Z,59.09
2022-09-09T09:17:26.444Z,59.41
2022-09-09T09:19:58.137Z,59.46
2022-09-09T09:22:53.911Z,59.29
2022-09-09T09:25:42.483Z,56.27
2022-09-09T09:28:28.249Z,55.86
2022-09-09T09:31:15.017Z,56.49
2022-09-09T09:33:56.650Z,56.95
2022-09-09T09:36:39.378Z,57.91
2022-09-09T09:41:58.854Z,54.97
2022-09-09T09:44:32.170Z,51.01
2022-09-09T09:47:15.474Z,51.05
2022-09-09T09:49:57.081Z,52.61
2022-09-09T09:52:30.549Z,53.97
2022-09-09T09:55:07.545Z,54.51
2022-09-09T09:57:42.495Z,55.61
2022-09-09T10:00:19.919Z,54.19
2022-09-09T10:02:53.554Z,54.51
2022-09-09T10:05:35.586Z,54.95
2022-09-09T10:08:17.687Z,55.76
2022-09-09T10:11:22.203Z,55.32
2022-09-09T10:14:23.281Z,55.28
2022-09-09T10:17:11.390Z,55.32
2022-09-09T10:20:00.163Z,56.26
2022-09-09T10:22:36.760Z,56.84
2022-09-09T10:25:18.406Z,56.95
2022-09-09T10:28:34.022Z,57.01
2022-09-09T10:31:29.733Z,57.73
2022-09-09T10:34:07.449Z,58.03
2022-09-09T10:36:47.717Z,58.27
2022-09-09T10:39:18.389Z,58.15
2022-09-09T10:42:04.423Z,58.55
2022-09-09T10:44:57.236Z,58.39
2022-09-09T10:48:02.888Z,59.04
2022-09-09T10:51:01.133Z,59.79
2022-09-09T10:53:55.140Z,60.20
2022-09-09T10:56:28.200Z,60.62
2022-09-09T10:59:27.317Z,60.88
2022-09-09T11:02:11.163Z,61.05
2022-09-09T11:04:45.228Z,61.22
2022-09-09T11:07:29.904Z,61.33
2022-09-09T11:10:07.555Z,61.65
2022-09-09T11:12:41.652Z,61.95
2022-09-09T11:15:34.503Z,62.23
2022-09-09T11:18:15.774Z,62.48
2022-09-09T11:20:49.924Z,62.66
2022-09-09T11:23:31.524Z,62.97
2022-09-09T11:26:08.501Z,63.02
2022-09-09T11:29:19.516Z,63.36
2022-09-09T11:32:06.046Z,63.51
2022-09-09T11:35:03.611Z,63.45
2022-09-09T11:37:49.542Z,63.36
2022-09-09T11:40:35.335Z,63.58
2022-09-09T11:43:23.028Z,63.69
2022-09-09T11:46:01.352Z,63.92
2022-09-09T11:48:38.009Z,63.90
2022-09-09T11:51:19.862Z,63.94
2022-09-09T11:54:18.935Z,64.03
2022-09-09T11:56:50.240Z,64.01
2022-09-09T11:59:33.692Z,63.87
2022-09-09T12:02:08.094Z,63.84
2022-09-09T12:04:45.901Z,63.94
2022-09-09T12:07:45.088Z,64.18
2022-09-09T12:10:36.434Z,64.25
2022-09-09T12:13:25.819Z,64.40
2022-09-09T12:15:59.250Z,64.33
2022-09-09T12:18:46.833Z,64.29
2022-09-09T12:21:29.911Z,63.89
2022-09-09T12:24:07.270Z,63.51
2022-09-09T12:26:45.955Z,62.87
2022-09-09T12:29:19.843Z,62.91
2022-09-09T12:32:08.412Z,62.87
2022-09-09T12:34:58.202Z,62.97
2022-09-09T12:37:49.453Z,62.55
2022-09-09T12:40:37.380Z,62.82
2022-09-09T12:43:25.368Z,62.51
2022-09-09T12:46:02.033Z,60.95
2022-09-09T12:48:38.713Z,61.43
2022-09-09T12:51:28.791Z,61.22
2022-09-09T12:54:01.044Z,60.92
2022-09-09T12:56:34.564Z,60.65
2022-09-09T12:59:06.296Z,60.27
2022-09-09T13:01:37.916Z,60.26
2022-09-09T13:04:23.593Z,59.60
2022-09-09T13:06:56.641Z,59.68
2022-09-09T13:09:24.656Z,59.62
2022-09-09T13:11:59.478Z,59.41
2022-09-09T13:14:41.679Z,59.72
2022-09-09T13:17:21.264Z,59.59
2022-09-09T13:19:54.087Z,59.62
2022-09-09T13:22:37.085Z,59.65
2022-09-09T13:25:30.498Z,59.61
2022-09-09T13:28:05.963Z,59.77
2022-09-09T13:30:41.268Z,59.88
2022-09-09T13:33:12.268Z,60.06
2022-09-09T13:35:48.607Z,60.25
2022-09-09T13:38:19.155Z,60.46
2022-09-09T13:41:05.820Z,60.36
2022-09-09T13:43:48.439Z,60.58
2022-09-09T13:46:32.021Z,60.68
2022-09-09T13:49:13.139Z,60.57
2022-09-09T13:51:47.999Z,60.39
2022-09-09T13:54:20.591Z,60.20
2022-09-09T13:56:52.225Z,60.30
2022-09-09T13:59:23.199Z,60.35
2022-09-09T14:01:54.648Z,60.28
2022-09-09T14:04:22.330Z,60.31
2022-09-09T14:06:53.528Z,60.21
2022-09-09T14:09:24.890Z,60.21
2022-09-09T14:11:52.599Z,60.34
2022-09-09T14:14:27.495Z,60.41
2022-09-09T14:16:55.192Z,60.44
2022-09-09T14:19:26.312Z,60.58
2022-09-09T14:21:54.013Z,60.34
2022-09-09T14:24:21.736Z,60.23
2022-09-09T14:26:49.431Z,60.15
2022-09-09T14:29:26.098Z,60.16
2022-09-09T14:31:54.053Z,60.56
2022-09-09T14:34:21.972Z,60.42
2022-09-09T14:36:49.886Z,60.43
2022-09-09T14:39:17.828Z,60.62
2022-09-09T14:41:49.350Z,60.87
2022-09-09T14:44:21.210Z,60.90
2022-09-09T14:46:54.585Z,60.84
2022-09-09T14:49:25.779Z,61.10
2022-09-09T14:51:53.811Z,61.09
2022-09-09T14:54:27.351Z,60.98
2022-09-09T14:56:58.759Z,61.20
2022-09-09T14:59:26.533Z,61.17
2022-09-09T15:02:01.038Z,61.21
2022-09-09T15:04:29.030Z,61.29
2022-09-09T15:07:00.962Z,61.46
2022-09-09T15:09:28.630Z,61.63
2022-09-09T15:12:01.131Z,61.54
2022-09-09T15:14:29.857Z,61.56
2022-09-09T15:16:59.725Z,61.62
2022-09-09T15:19:30.727Z,61.53
2022-09-09T15:22:01.216Z,61.72
2022-09-09T15:24:29.143Z,61.88
2022-09-09T15:27:01.045Z,62.09
2022-09-09T15:29:32.619Z,62.20
2022-09-09T15:32:00.541Z,62.43
2022-09-09T15:34:30.305Z,62.28
2022-09-09T15:37:01.283Z,62.25
2022-09-09T15:39:35.757Z,62.89
2022-09-09T15:42:13.231Z,62.97
2022-09-09T15:44:47.751Z,63.01
2022-09-09T15:47:19.610Z,63.34
2022-09-09T15:49:47.342Z,63.41
2022-09-09T15:52:15.044Z,63.43
2022-09-09T15:54:50.073Z,63.63
2022-09-09T15:57:18.013Z,63.77
2022-09-09T15:59:47.588Z,63.90
2022-09-09T16:02:22.624Z,64.15
2022-09-09T16:04:50.682Z,64.26
2022-09-09T16:07:21.919Z,64.46
2022-09-09T16:09:53.878Z,64.51
2022-09-09T16:12:25.817Z,64.76
2022-09-09T16:14:53.724Z,64.85
2022-09-09T16:17:23.350Z,65.11
2022-09-09T16:19:58.702Z,65.12
2022-09-09T16:22:26.626Z,65.30
2022-09-09T16:24:56.310Z,65.38
2022-09-09T16:27:24.426Z,65.88
2022-09-09T16:29:54.456Z,66.17
2022-09-09T16:32:25.592Z,66.58
2022-09-09T16:34:53.373Z,66.86
2022-09-09T16:37:21.054Z,67.14
2022-09-09T16:39:48.996Z,67.41
2022-09-09T16:42:18.805Z,67.68
2022-09-09T16:44:46.853Z,67.83
2022-09-09T16:47:14.538Z,67.71
2022-09-09T16:49:45.723Z,67.74
2022-09-09T16:52:17.108Z,67.92
2022-09-09T16:54:48.338Z,68.43
2022-09-09T16:57:17.942Z,68.63
2022-09-09T16:59:45.661Z,68.80
2022-09-09T17:02:13.501Z,68.78
2022-09-09T17:04:45.187Z,69.30
2022-09-09T17:07:14.957Z,69.61
2022-09-09T17:09:48.850Z,69.83
2022-09-09T17:12:20.686Z,69.96
2022-09-09T17:14:52.121Z,70.10
2022-09-09T17:17:31.695Z,70.29
2022-09-09T17:20:08.139Z,70.47
2022-09-09T17:22:39.387Z,70.39
2022-09-09T17:25:09.711Z,71.06
2022-09-09T17:27:40.458Z,70.87
2022-09-09T17:30:11.935Z,71.16
2022-09-09T17:32:39.858Z,71.08
2022-09-09T17:35:10.456Z,71.19
2022-09-09T17:37:38.552Z,71.60
2022-09-09T17:40:10.131Z,71.95
2022-09-09T17:42:39.826Z,72.13
2022-09-09T17:45:10.971Z,72.24
2022-09-09T17:47:42.154Z,72.23
2022-09-09T17:50:13.886Z,72.34
2022-09-09T17:52:43.859Z,72.63
2022-09-09T17:55:13.710Z,72.77
2022-09-09T17:57:47.297Z,72.64
2022-09-09T18:00:18.339Z,72.88
2022-09-09T18:02:46.451Z,73.00
2022-09-09T18:05:17.219Z,73.25
2022-09-09T18:07:52.485Z,73.44
2022-09-09T18:10:20.439Z,73.32
2022-09-09T18:12:48.377Z,73.57
2022-09-09T18:15:33.336Z,73.84
2022-09-09T18:18:11.597Z,73.47
2022-09-09T18:20:39.519Z,73.61
2022-09-09T18:23:10.890Z,73.93
2022-09-09T18:25:40.322Z,74.14
2022-09-09T18:28:09.222Z,74.34
2022-09-09T18:30:40.668Z,74.55
2022-09-09T18:33:09.161Z,74.70
2022-09-09T18:35:41.626Z,74.88
2022-09-09T18:38:11.321Z,74.97
2022-09-09T18:40:39.371Z,75.03
2022-09-09T18:43:11.558Z,75.08
2022-09-09T18:45:42.905Z,75.16
2022-09-09T18:48:10.806Z,75.07
2022-09-09T18:50:38.778Z,75.04
2022-09-09T18:53:10.149Z,75.22
2022-09-09T18:55:41.435Z,75.47
2022-09-09T18:58:09.189Z,75.55
2022-09-09T19:00:40.511Z,75.38
2022-09-09T19:03:10.361Z,75.55
2022-09-09T19:05:41.240Z,75.60
2022-09-09T19:08:09.180Z,75.78
2022-09-09T19:10:40.613Z,75.80
2022-09-09T19:13:08.791Z,75.84
2022-09-09T19:15:42.207Z,75.90
2022-09-09T19:18:10.971Z,76.02
2022-09-09T19:20:42.318Z,76.12
2022-09-09T19:23:10.265Z,76.13
2022-09-09T19:25:40.219Z,76.18
2022-09-09T19:28:08.159Z,76.37
2022-09-09T19:30:39.751Z,76.41
2022-09-09T19:33:11.505Z,76.58
2022-09-09T19:35:39.324Z,76.64
2022-09-09T19:38:11.206Z,76.74
2022-09-09T19:40:43.713Z,76.77
2022-09-09T19:43:11.545Z,77.20
2022-09-09T19:45:39.646Z,77.30
2022-09-09T19:48:11.988Z,77.43
2022-09-09T19:50:41.867Z,77.55
2022-09-09T19:53:10.166Z,77.65
2022-09-09T19:55:41.534Z,77.65
2022-09-09T19:58:09.537Z,77.71
2022-09-09T20:00:42.385Z,77.88
2022-09-09T20:03:19.215Z,78.14
2022-09-09T20:05:50.156Z,77.92
2022-09-09T20:08:18.199Z,78.22
2022-09-09T20:10:56.050Z,78.43
2022-09-09T20:13:24.974Z,78.69
2022-09-09T20:16:03.661Z,78.67
2022-09-09T20:18:33.808Z,78.89
2022-09-09T20:21:07.616Z,79.01
2022-09-09T20:23:35.815Z,79.18
2022-09-09T20:26:08.487Z,79.29
2022-09-09T20:28:41.318Z,79.37
2022-09-09T20:31:19.364Z,79.43
2022-09-09T20:33:52.244Z,79.47
2022-09-09T20:36:28.200Z,79.41
2022-09-09T20:39:02.263Z,79.47
2022-09-09T20:41:36.321Z,79.60
2022-09-09T20:44:09.148Z,79.69
2022-09-09T20:46:41.045Z,79.75
2022-09-09T20:49:11.417Z,79.79
2022-09-09T20:51:40.194Z,79.89
2022-09-09T20:54:12.423Z,80.06
2022-09-09T20:56:42.543Z,80.15
2022-09-09T20:59:16.893Z,80.08
2022-09-09T21:01:47.463Z,80.27
2022-09-09T21:04:17.689Z,80.45
2022-09-09T21:06:46.659Z,80.61
2022-09-09T21:09:14.572Z,80.70
2022-09-09T21:11:42.541Z,80.82
2022-09-09T21:14:10.918Z,80.88
2022-09-09T21:16:38.836Z,80.93
2022-09-09T21:19:06.966Z,81.01
2022-09-09T21:21:36.363Z,81.11
2022-09-09T21:24:04.739Z,81.20
2022-09-09T21:26:33.175Z,81.30
2022-09-09T21:29:01.456Z,81.35
2022-09-09T21:31:30.013Z,81.38
2022-09-09T21:33:58.269Z,81.37
2022-09-09T21:36:28.697Z,81.42
2022-09-09T21:38:59.432Z,81.54
2022-09-09T21:41:28.397Z,81.66
2022-09-09T21:43:57.131Z,81.70
2022-09-09T21:46:27.784Z,81.55
2022-09-09T21:48:58.181Z,81.67
2022-09-09T21:51:25.946Z,81.77
2022-09-09T21:53:56.644Z,81.88
2022-09-09T21:56:27.432Z,81.96
2022-09-09T21:58:58.579Z,82.08
2022-09-09T22:01:26.821Z,82.05
2022-09-09T22:03:56.254Z,82.03
2022-09-09T22:06:24.870Z,82.07
2022-09-09T22:08:59.025Z,82.03
2022-09-09T22:11:27.117Z,82.05
2022-09-09T22:13:56.818Z,81.99
2022-09-09T22:16:26.474Z,81.95
2022-09-09T22:18:58.373Z,81.97
2022-09-09T22:21:30.442Z,82.17
2022-09-09T22:24:02.204Z,82.32
2022-09-09T22:26:34.763Z,82.28
2022-09-09T22:29:05.020Z,82.19
2022-09-09T22:31:36.127Z,82.21
2022-09-09T22:34:05.760Z,82.32
2022-09-09T22:36:34.978Z,82.35
2022-09-09T22:39:05.679Z,82.42
2022-09-09T22:41:34.048Z,82.50
2022-09-09T22:44:03.495Z,82.50
2022-09-09T22:46:31.504Z,82.46
2022-09-09T22:49:03.729Z,82.50
2022-09-09T22:51:35.463Z,82.56
2022-09-09T22:54:05.538Z,82.60
2022-09-09T22:56:33.896Z,82.62
2022-09-09T22:59:02.653Z,82.63
2022-09-09T23:01:31.666Z,82.62
2022-09-09T23:04:03.217Z,82.61
2022-09-09T23:06:32.720Z,82.65
2022-09-09T23:09:03.952Z,82.66
2022-09-09T23:11:37.552Z,82.75
2022-09-09T23:14:10.799Z,82.77
2022-09-09T23:16:44.055Z,82.74
2022-09-09T23:19:16.740Z,82.71
2022-09-09T23:21:47.161Z,82.67
2022-09-09T23:24:19.089Z,82.57
2022-09-09T23:26:48.394Z,82.63
2022-09-09T23:29:16.899Z,82.53
2022-09-09T23:31:46.825Z,82.58
2022-09-09T23:34:16.269Z,82.68
2022-09-09T23:36:45.074Z,82.76
2022-09-09T23:39:13.842Z,82.66
2022-09-09T23:41:41.587Z,82.75
2022-09-09T23:44:13.472Z,82.77
2022-09-09T23:46:41.611Z,82.80
2022-09-09T23:49:11.266Z,82.85
2022-09-09T23:51:39.963Z,82.92
2022-09-09T23:54:10.578Z,82.76
2022-09-09T23:56:42.413Z,82.80
2022-09-09T23:59:11.216Z,82.93
